createdAt,value
2019-04-16T03:19:26.012Z,0.00
2019-04-16T03:21:00.824Z,-1.90
2019-04-16T04:40:28.806Z,-2.00
2019-04-16T04:42:03.582Z,0.30
2019-04-16T04:43:39.001Z,0.30
2019-04-16T04:45:13.961Z,0.50
2019-04-16T04:46:48.762Z,0.60
2019-04-16T04:48:24.359Z,0.60
2019-04-16T04:49:59.577Z,0.60
2019-04-16T05:20:20.110Z,0.60
2019-04-16T05:21:54.902Z,2.20
2019-04-16T05:23:29.978Z,2.10
2019-04-16T05:25:05.344Z,2.10
2019-04-16T05:26:40.116Z,2.10
2019-04-16T05:28:14.893Z,2.10
2019-04-16T05:29:49.719Z,2.10
2019-04-16T05:31:25.664Z,2.20
2019-04-16T05:33:04.940Z,2.30
2019-04-16T05:34:38.416Z,2.40
2019-04-16T11:17:05.975Z,11.30
2019-04-16T11:21:51.818Z,20.50
2019-04-16T11:23:26.620Z,20.40
2019-04-16T11:25:01.502Z,20.70
2019-04-16T12:20:15.880Z,20.10
2019-04-16T12:50:22.302Z,20.50
2019-04-16T12:52:17.532Z,19.10
2019-04-16T12:54:03.273Z,19.50
2019-04-16T12:55:55.538Z,20.00
2019-04-16T12:57:37.813Z,21.00
2019-04-16T13:01:14.867Z,21.80
2019-04-16T13:06:40.456Z,24.20
2019-04-16T13:17:50.830Z,22.50
2019-04-16T13:20:02.715Z,18.90
2019-04-16T13:21:50.391Z,19.00
2019-04-16T13:23:34.050Z,19.80
2019-04-16T13:25:34.228Z,21.00
2019-04-16T13:27:13.770Z,21.80
2019-04-16T13:28:48.800Z,21.70
2019-04-16T13:30:23.641Z,21.40
2019-04-16T13:31:58.647Z,20.50
2019-04-16T13:33:33.719Z,20.30
2019-04-16T13:41:44.068Z,19.80
2019-04-16T13:43:20.905Z,22.40
2019-04-16T13:45:17.911Z,21.90
2019-04-16T13:46:51.195Z,22.20
2019-04-16T13:49:00.709Z,22.70
2019-04-16T13:50:42.785Z,23.40
2019-04-16T13:52:20.490Z,23.80
2019-04-16T13:54:16.122Z,23.30
2019-04-16T13:56:25.403Z,22.00
2019-04-16T13:58:04.188Z,22.00
2019-04-16T14:01:39.269Z,21.50
2019-04-16T14:40:24.992Z,20.20
2019-04-16T14:42:00.150Z,18.00
2019-04-16T14:43:38.085Z,17.90
2019-04-16T14:45:19.983Z,18.00
2019-04-16T14:46:57.452Z,18.20
2019-04-16T14:48:31.334Z,18.70
2019-04-16T14:50:06.438Z,19.10
2019-04-16T14:51:41.216Z,19.40
2019-04-16T14:53:28.770Z,19.50
2019-04-16T14:55:09.822Z,19.20
2019-04-16T14:56:50.818Z,19.00
2019-04-16T14:58:46.150Z,18.80
2019-04-16T15:00:33.507Z,18.70
2019-04-16T15:02:29.397Z,18.30
2019-04-16T15:04:25.753Z,18.50
2019-04-16T15:06:19.826Z,18.70
2019-04-16T15:08:09.219Z,19.00
2019-04-16T15:10:02.483Z,19.10
2019-04-16T15:40:39.615Z,18.20
2019-04-16T15:42:29.343Z,17.20
2019-04-16T15:44:16.335Z,17.00
2019-04-16T19:37:03.717Z,16.80
2019-04-16T19:38:39.564Z,6.40
2019-04-16T19:40:16.023Z,6.20
2019-04-16T19:41:52.961Z,6.10
2019-04-16T19:43:28.625Z,6.00
2019-04-16T19:45:05.411Z,5.90
2019-04-16T19:46:40.167Z,5.90
2019-04-16T19:48:17.910Z,5.80
2019-04-16T20:32:42.284Z,5.70
2019-04-16T20:34:18.189Z,4.60
2019-04-16T20:35:53.467Z,4.50
2019-04-16T20:37:28.340Z,4.50
2019-04-16T20:39:03.567Z,4.40
2019-04-16T20:40:38.377Z,4.40
2019-04-16T20:42:13.884Z,4.30
2019-04-16T20:43:48.632Z,4.30
2019-04-16T20:45:23.733Z,4.20
2019-04-16T20:47:02.336Z,4.30
2019-04-16T20:48:35.296Z,4.20
2019-04-16T20:50:10.427Z,4.20
2019-04-16T20:51:45.586Z,4.10
2019-04-16T20:53:20.377Z,4.10
2019-04-16T20:54:55.966Z,4.10
2019-04-16T20:56:31.264Z,4.10
2019-04-16T20:58:06.170Z,4.00
2019-04-16T20:59:41.222Z,4.00
2019-04-16T21:01:32.218Z,4.00
2019-04-16T21:02:54.176Z,4.00
2019-04-16T21:04:29.166Z,3.90
2019-04-16T21:06:07.135Z,3.90
2019-04-16T21:07:43.922Z,3.90
2019-04-16T21:09:18.477Z,3.80
2019-04-16T21:10:53.575Z,3.80
2019-04-16T21:12:28.603Z,3.80
2019-04-16T21:31:42.379Z,3.80
2019-04-16T21:33:24.419Z,3.20
2019-04-16T21:35:01.067Z,3.10
2019-04-16T21:36:40.734Z,3.10
2019-04-16T21:38:42.161Z,3.10
2019-04-16T21:40:20.585Z,3.00
2019-04-16T21:41:55.035Z,3.00
2019-04-16T21:43:31.385Z,3.00
2019-04-16T21:45:07.791Z,3.00
2019-04-16T21:46:43.315Z,2.90
2019-04-16T21:48:18.260Z,2.90
2019-04-16T21:49:53.325Z,2.80
2019-04-16T21:51:28.179Z,2.80
2019-04-16T21:53:02.989Z,2.80
2019-04-16T21:54:39.212Z,2.80
2019-04-16T21:56:14.222Z,2.70
2019-04-16T21:57:49.223Z,2.70
2019-04-16T21:59:24.009Z,2.70
2019-04-16T22:01:05.208Z,2.70
2019-04-16T22:02:41.131Z,2.70
2019-04-16T22:04:17.998Z,2.70
2019-04-16T22:05:52.855Z,2.60
2019-04-16T22:07:28.074Z,2.60
2019-04-16T22:09:04.754Z,2.60
2019-04-16T22:10:40.076Z,2.60
2019-04-16T22:12:15.552Z,2.50
2019-04-16T22:13:51.404Z,2.50
2019-04-16T22:15:26.238Z,2.40
2019-04-16T22:17:04.169Z,2.40
2019-04-16T22:18:41.236Z,2.30
2019-04-16T22:20:14.807Z,2.30
2019-04-16T22:21:49.800Z,2.30
2019-04-16T22:23:24.912Z,2.20
2019-04-16T22:25:00.175Z,2.10
2019-04-16T22:26:35.557Z,2.10
2019-04-16T22:28:12.752Z,2.10
2019-04-16T22:29:48.192Z,2.00
2019-04-16T22:31:23.955Z,2.00
2019-04-16T22:33:05.499Z,2.00
2019-04-16T22:34:36.481Z,1.90
2019-04-16T22:36:11.248Z,1.90
2019-04-16T22:37:46.005Z,1.80
2019-04-16T22:39:43.137Z,1.80
2019-04-16T22:41:28.208Z,1.70
2019-04-16T22:43:35.909Z,1.70
2019-04-16T22:45:36.084Z,1.60
2019-04-16T22:47:13.832Z,1.60
2019-04-16T22:48:55.743Z,1.60
2019-04-16T22:50:30.507Z,1.50
2019-04-16T22:52:05.816Z,1.50
2019-04-16T22:53:40.632Z,1.50
2019-04-16T22:55:15.400Z,1.50
2019-04-16T22:57:15.441Z,1.40
2019-04-16T22:58:50.569Z,1.40
2019-04-16T23:00:30.426Z,1.40
2019-04-16T23:02:13.803Z,1.40
2019-04-16T23:03:49.722Z,1.40
2019-04-16T23:05:24.508Z,1.40
2019-04-16T23:06:59.280Z,1.40
2019-04-16T23:08:34.046Z,1.40
2019-04-16T23:10:08.905Z,1.30
2019-04-16T23:11:43.902Z,1.30
2019-04-16T23:13:18.658Z,1.20
2019-04-16T23:14:53.447Z,1.20
2019-04-16T23:16:28.208Z,1.20
2019-04-16T23:18:02.997Z,1.20
2019-04-16T23:19:37.764Z,1.20
2019-04-16T23:21:12.530Z,1.20
2019-04-16T23:22:47.658Z,1.20
2019-04-16T23:24:23.489Z,1.10
2019-04-16T23:26:00.465Z,1.10
2019-04-16T23:27:37.433Z,1.00
2019-04-16T23:29:15.782Z,1.00
2019-04-16T23:30:51.201Z,1.00
2019-04-16T23:32:28.629Z,1.00
2019-04-16T23:34:06.435Z,0.90
2019-04-16T23:35:43.370Z,0.90
2019-04-16T23:37:15.460Z,0.90
2019-04-16T23:38:50.224Z,0.90
2019-04-16T23:40:25.248Z,0.90
2019-04-16T23:42:00.267Z,0.80
2019-04-16T23:43:50.514Z,0.70
2019-04-16T23:45:42.820Z,0.70
2019-04-16T23:47:41.877Z,0.70
2019-04-16T23:49:38.874Z,0.60
2019-04-16T23:51:18.157Z,0.60
2019-04-16T23:52:58.381Z,0.60
2019-04-16T23:54:40.736Z,0.70
2019-04-16T23:56:23.665Z,0.60
2019-04-16T23:58:11.654Z,0.60
